createdAt,value
2023-03-22T00:00:22.313Z,100482.28
2023-03-22T00:03:17.380Z,100479.09
2023-03-22T00:06:14.395Z,100400.56
2023-03-22T00:08:48.434Z,100490.44
2023-03-22T00:11:36.302Z,100480.78
2023-03-22T00:14:18.272Z,100477.44
2023-03-22T00:17:05.283Z,100482.00
2023-03-22T00:19:48.289Z,100481.91
2023-03-22T00:22:42.267Z,100467.75
2023-03-22T00:25:30.308Z,100484.44
2023-03-22T00:28:03.556Z,100483.56
2023-03-22T00:30:58.280Z,100486.38
2023-03-22T00:33:32.354Z,100485.41
2023-03-22T00:36:19.270Z,100483.84
2023-03-22T00:38:52.427Z,100458.41
2023-03-22T00:41:39.293Z,100477.25
2023-03-22T00:44:12.457Z,100445.00
2023-03-22T00:47:00.310Z,100470.28
2023-03-22T00:49:41.294Z,100441.91
2023-03-22T00:52:39.303Z,100424.88
2023-03-22T00:55:26.324Z,100443.00
2023-03-22T00:58:00.442Z,100445.34
2023-03-22T01:00:47.296Z,100435.16
2023-03-22T01:03:22.378Z,100435.03
2023-03-22T01:06:09.351Z,100448.72
2023-03-22T01:08:43.401Z,100435.16
2023-03-22T01:11:31.348Z,100439.25
2023-03-22T01:14:05.416Z,100441.34
2023-03-22T01:16:52.313Z,100423.53
2023-03-22T01:19:35.281Z,100438.78
2023-03-22T01:22:22.263Z,100430.69
2023-03-22T01:25:03.278Z,100432.81
2023-03-22T01:27:50.283Z,100418.53
2023-03-22T01:30:24.382Z,100424.63
2023-03-22T01:33:14.285Z,100421.16
2023-03-22T01:35:56.344Z,100432.94
2023-03-22T01:38:51.276Z,100429.00
2023-03-22T01:41:41.315Z,100428.28
2023-03-22T01:44:24.282Z,100437.66
2023-03-22T01:47:11.243Z,100424.38
2023-03-22T01:49:46.429Z,100437.91
2023-03-22T01:52:35.279Z,100433.31
2023-03-22T01:55:16.290Z,100444.97
2023-03-22T01:58:03.307Z,100432.25
2023-03-22T02:00:37.705Z,100435.47
2023-03-22T02:03:29.326Z,100425.00
2023-03-22T02:06:10.568Z,100363.84
2023-03-22T02:08:53.296Z,100441.06
2023-03-22T02:11:38.575Z,100400.41
2023-03-22T02:14:35.277Z,100445.66
2023-03-22T02:17:33.375Z,100439.38
2023-03-22T02:20:53.272Z,100429.59
2023-03-22T02:24:08.265Z,100432.47
2023-03-22T02:26:55.015Z,100450.38
2023-03-22T02:29:52.297Z,100415.97
2023-03-22T02:33:14.284Z,100448.97
2023-03-22T02:36:20.453Z,100448.88
2023-03-22T02:39:14.516Z,100426.38
2023-03-22T02:42:22.295Z,100450.94
2023-03-22T02:45:01.478Z,100442.28
2023-03-22T02:48:18.255Z,100446.75
2023-03-22T02:50:58.345Z,100447.88
2023-03-22T02:53:44.254Z,100362.56
2023-03-22T02:56:32.367Z,100446.38
2023-03-22T02:59:15.290Z,100456.03
2023-03-22T03:01:58.436Z,100456.91
2023-03-22T03:04:43.330Z,100452.28
2023-03-22T03:07:34.292Z,100459.31
2023-03-22T03:10:16.290Z,100458.75
2023-03-22T03:13:13.275Z,100444.63
2023-03-22T03:16:10.280Z,100462.22
2023-03-22T03:19:05.252Z,100453.00
2023-03-22T03:21:54.365Z,100458.44
2023-03-22T03:24:40.238Z,100419.31
2023-03-22T03:27:24.322Z,100473.69
2023-03-22T03:30:11.251Z,100483.59
2023-03-22T03:33:06.266Z,100466.84
2023-03-22T03:35:44.089Z,100449.50
2023-03-22T03:38:35.250Z,100426.56
2023-03-22T03:41:19.255Z,100477.44
2023-03-22T03:44:01.341Z,100411.50
2023-03-22T03:46:43.263Z,100460.41
2023-03-22T03:49:30.240Z,100452.84
2023-03-22T03:52:05.296Z,100480.84
2023-03-22T03:54:52.275Z,100462.88
2023-03-22T03:57:25.778Z,100405.94
2023-03-22T04:00:12.242Z,100455.50
2023-03-22T04:02:47.225Z,100493.63
2023-03-22T04:05:34.206Z,100475.41
2023-03-22T04:08:08.451Z,100498.56
2023-03-22T04:10:55.213Z,100469.69
2023-03-22T04:13:42.227Z,100489.84
2023-03-22T04:16:31.318Z,100502.72
2023-03-22T04:19:06.352Z,100501.19
2023-03-22T04:21:53.324Z,100501.56
2023-03-22T04:24:35.284Z,100501.66
2023-03-22T04:27:30.235Z,100482.53
2023-03-22T04:30:25.195Z,100506.06
2023-03-22T04:33:05.238Z,100506.69
2023-03-22T04:36:04.598Z,100504.13
2023-03-22T04:38:58.231Z,100511.50
2023-03-22T04:41:45.240Z,100442.28
2023-03-22T04:44:19.437Z,100452.59
2023-03-22T04:47:06.286Z,100493.31
2023-03-22T04:49:47.214Z,100466.44
2023-03-22T04:52:42.268Z,100527.81
2023-03-22T04:55:36.240Z,100519.50
2023-03-22T04:58:23.181Z,100482.84
2023-03-22T05:01:05.208Z,100523.66
2023-03-22T05:03:59.198Z,100522.75
2023-03-22T05:06:46.286Z,100525.13
2023-03-22T05:09:28.275Z,100502.53
2023-03-22T05:12:08.219Z,100510.69
2023-03-22T05:15:02.176Z,100526.97
2023-03-22T05:17:49.228Z,100522.53
2023-03-22T05:20:23.356Z,100535.09
2023-03-22T05:23:11.176Z,100543.53
2023-03-22T05:25:46.837Z,100548.16
2023-03-22T05:28:35.200Z,100543.00
2023-03-22T05:31:17.296Z,100549.41
2023-03-22T05:34:04.228Z,100552.69
2023-03-22T05:36:45.228Z,100533.56
2023-03-22T05:39:39.256Z,100549.81
2023-03-22T05:42:27.294Z,100561.91
2023-03-22T05:45:01.313Z,100563.53
2023-03-22T05:47:48.226Z,100566.19
2023-03-22T05:50:24.362Z,100525.97
2023-03-22T05:53:11.220Z,100584.69
2023-03-22T05:55:45.300Z,100570.03
2023-03-22T05:58:37.249Z,100596.53
2023-03-22T06:01:24.258Z,100573.56
2023-03-22T06:04:18.213Z,100594.97
2023-03-22T06:07:12.261Z,100593.47
2023-03-22T06:10:06.204Z,100594.44
2023-03-22T06:13:02.277Z,100587.09
2023-03-22T06:15:51.408Z,100605.38
2023-03-22T06:18:25.479Z,100606.47
2023-03-22T06:21:13.196Z,100580.09
2023-03-22T06:23:53.257Z,100619.53
2023-03-22T06:26:47.219Z,100556.38
2023-03-22T06:29:34.188Z,100636.31
2023-03-22T06:32:09.281Z,100617.59
2023-03-22T06:34:56.224Z,100595.53
2023-03-22T06:37:32.590Z,100600.34
2023-03-22T06:40:19.227Z,100548.25
2023-03-22T06:42:54.430Z,100612.78
2023-03-22T06:45:42.331Z,100622.69
2023-03-22T06:48:24.252Z,100592.22
2023-03-22T06:54:31.706Z,100624.88
2023-03-22T06:56:59.091Z,100603.66
2023-03-22T06:59:26.178Z,100552.09
2023-03-22T07:01:53.412Z,100541.66
2023-03-22T07:04:21.752Z,100605.81
2023-03-22T07:06:49.146Z,100622.47
2023-03-22T07:09:16.437Z,100640.16
2023-03-22T07:11:43.839Z,100635.78
2023-03-22T07:14:11.370Z,100638.56
2023-03-22T07:16:38.666Z,100642.50
2023-03-22T07:19:05.967Z,100624.19
2023-03-22T07:21:37.649Z,100640.09
2023-03-22T07:24:06.761Z,100614.88
2023-03-22T07:26:37.664Z,100633.97
2023-03-22T07:29:04.652Z,100634.00
2023-03-22T07:31:35.712Z,100644.69
2023-03-22T07:34:03.593Z,100632.66
2023-03-22T07:36:30.811Z,100602.72
2023-03-22T07:38:59.196Z,100649.91
2023-03-22T07:41:28.756Z,100616.78
2023-03-22T07:44:07.910Z,100645.69
2023-03-22T07:46:44.349Z,100647.56
2023-03-22T07:49:11.422Z,100649.91
2023-03-22T07:51:38.968Z,100648.72
2023-03-22T07:54:07.997Z,100633.38
2023-03-22T07:56:35.883Z,100646.19
2023-03-22T07:59:04.761Z,100647.78
2023-03-22T08:01:32.081Z,100628.88
2023-03-22T08:03:59.798Z,100617.66
2023-03-22T08:06:27.131Z,100641.22
2023-03-22T08:08:54.099Z,100647.88
2023-03-22T08:11:22.755Z,100631.41
2023-03-22T08:13:50.165Z,100624.94
2023-03-22T08:16:17.655Z,100587.47
2023-03-22T08:18:45.466Z,100615.00
2023-03-22T08:21:13.011Z,100649.31
2023-03-22T08:23:43.210Z,100592.41
2023-03-22T08:26:13.567Z,100650.06
2023-03-22T08:28:42.063Z,100654.41
2023-03-22T08:31:15.066Z,100655.94
2023-03-22T08:33:43.099Z,100660.13
2023-03-22T08:36:13.726Z,100651.19
2023-03-22T08:38:42.388Z,100662.16
2023-03-22T08:41:09.865Z,100660.59
2023-03-22T08:43:36.716Z,100661.94
2023-03-22T08:46:06.102Z,100655.09
2023-03-22T08:48:34.756Z,100664.84
2023-03-22T08:51:02.276Z,100651.25
2023-03-22T08:53:29.591Z,100647.22
2023-03-22T08:55:58.211Z,100656.25
2023-03-22T08:58:25.282Z,100662.69
2023-03-22T09:00:52.768Z,100645.28
2023-03-22T09:03:22.866Z,100662.09
2023-03-22T09:05:50.129Z,100651.06
2023-03-22T09:08:19.486Z,100663.19
2023-03-22T09:10:51.276Z,100658.19
2023-03-22T09:13:19.055Z,100657.69
2023-03-22T09:15:46.778Z,100661.81
2023-03-22T09:18:14.458Z,100630.47
2023-03-22T09:20:44.793Z,100655.88
2023-03-22T09:23:12.057Z,100657.06
2023-03-22T09:25:42.638Z,100662.56
2023-03-22T09:28:10.039Z,100626.06
2023-03-22T09:30:38.103Z,100645.91
2023-03-22T09:33:06.719Z,100646.41
2023-03-22T09:35:34.241Z,100644.41
2023-03-22T09:38:03.589Z,100648.13
2023-03-22T09:40:33.288Z,100635.88
2023-03-22T09:43:04.364Z,100617.72
2023-03-22T09:45:38.116Z,100644.84
2023-03-22T09:48:09.318Z,100644.47
2023-03-22T09:50:43.834Z,100597.50
2023-03-22T09:53:14.852Z,100641.47
2023-03-22T09:55:46.455Z,100643.97
2023-03-22T09:58:25.422Z,100642.81
2023-03-22T10:00:57.736Z,100622.19
2023-03-22T10:03:51.266Z,100634.13
2023-03-22T10:06:20.632Z,100621.34
2023-03-22T10:08:59.529Z,100627.63
2023-03-22T10:11:38.589Z,100626.00
2023-03-22T10:14:21.405Z,100628.84
2023-03-22T10:16:52.435Z,100625.13
2023-03-22T10:19:24.402Z,100630.00
2023-03-22T10:21:55.710Z,100627.31
2023-03-22T10:24:44.456Z,100619.47
2023-03-22T10:27:15.456Z,100595.69
2023-03-22T10:29:48.760Z,100579.53
2023-03-22T10:32:18.099Z,100622.66
2023-03-22T10:34:46.614Z,100630.38
2023-03-22T10:37:16.519Z,100625.22
2023-03-22T10:39:54.004Z,100621.59
2023-03-22T10:42:25.963Z,100622.03
2023-03-22T10:44:56.137Z,100612.53
2023-03-22T10:47:30.596Z,100619.56
2023-03-22T10:50:03.499Z,100609.16
2023-03-22T10:52:44.922Z,100611.28
2023-03-22T10:55:15.494Z,100604.44
2023-03-22T10:57:51.497Z,100610.28
2023-03-22T11:00:20.884Z,100608.50
2023-03-22T11:02:52.799Z,100603.78
2023-03-22T11:05:23.620Z,100586.94
2023-03-22T11:07:51.276Z,100579.06
2023-03-22T11:10:23.337Z,100583.00
2023-03-22T11:12:53.498Z,100557.34
2023-03-22T11:15:26.065Z,100535.72
2023-03-22T11:17:59.059Z,100580.56
2023-03-22T11:20:26.375Z,100590.78
2023-03-22T11:22:56.318Z,100581.31
2023-03-22T11:25:30.196Z,100584.03
2023-03-22T11:28:09.594Z,100584.03
2023-03-22T11:30:37.525Z,100581.53
2023-03-22T11:33:17.379Z,100575.84
2023-03-22T11:35:46.436Z,100578.53
2023-03-22T11:38:36.852Z,100572.50
2023-03-22T11:41:12.717Z,100564.50
2023-03-22T11:43:44.774Z,100566.06
2023-03-22T11:46:12.362Z,100557.78
2023-03-22T11:48:42.293Z,100556.19
2023-03-22T11:51:12.692Z,100566.41
2023-03-22T11:53:43.299Z,100559.16
2023-03-22T11:56:15.933Z,100552.09
2023-03-22T11:58:51.407Z,100559.78
2023-03-22T12:01:24.441Z,100553.75
2023-03-22T12:03:57.838Z,100557.69
2023-03-22T12:06:29.514Z,100523.44
2023-03-22T12:09:01.900Z,100552.97
2023-03-22T12:11:34.358Z,100547.81
2023-03-22T12:14:05.140Z,100547.38
2023-03-22T12:16:37.125Z,100543.81
2023-03-22T12:19:16.412Z,100496.66
2023-03-22T12:21:45.200Z,100540.88
2023-03-22T12:24:24.965Z,100539.41
2023-03-22T12:26:58.491Z,100534.41
2023-03-22T12:29:27.267Z,100549.81
2023-03-22T12:32:00.287Z,100520.91
2023-03-22T12:34:36.973Z,100531.50
2023-03-22T12:37:09.278Z,100516.53
2023-03-22T12:39:41.189Z,100539.19
2023-03-22T12:42:21.908Z,100534.22
2023-03-22T12:45:04.192Z,100529.84
2023-03-22T12:47:39.420Z,100528.59
2023-03-22T12:50:14.001Z,100512.63
2023-03-22T12:52:46.254Z,100521.31
2023-03-22T12:55:22.229Z,100524.41
2023-03-22T12:57:54.623Z,100527.31
2023-03-22T13:00:28.619Z,100506.69
2023-03-22T13:03:02.211Z,100485.88
2023-03-22T13:05:32.310Z,100525.16
2023-03-22T13:08:03.299Z,100517.06
2023-03-22T13:10:59.677Z,100489.38
2023-03-22T13:13:48.821Z,100504.19
2023-03-22T13:16:23.060Z,100468.44
2023-03-22T13:19:17.369Z,100516.22
2023-03-22T13:21:48.484Z,100494.16
2023-03-22T13:24:23.994Z,100506.28
2023-03-22T13:26:53.438Z,100513.94
2023-03-22T13:29:27.130Z,100511.47
2023-03-22T13:31:58.514Z,100512.78
2023-03-22T13:34:38.276Z,100481.22
2023-03-22T13:37:10.878Z,100500.97
2023-03-22T13:39:39.319Z,100500.97
2023-03-22T13:42:08.735Z,100498.88
2023-03-22T13:44:46.820Z,100496.22
2023-03-22T13:47:31.688Z,100482.91
2023-03-22T13:50:06.211Z,100474.50
2023-03-22T13:52:38.602Z,100498.78
2023-03-22T13:55:36.158Z,100487.44
2023-03-22T13:58:05.606Z,100473.69
2023-03-22T14:00:48.316Z,100485.78
2023-03-22T14:03:23.570Z,100485.38
2023-03-22T14:06:00.648Z,100480.59
2023-03-22T14:08:30.397Z,100479.16
2023-03-22T14:11:04.033Z,100473.00
2023-03-22T14:13:36.562Z,100480.94
2023-03-22T14:16:09.784Z,100488.22
2023-03-22T14:18:42.160Z,100483.03
2023-03-22T14:21:15.734Z,100478.47
